Center Berlin, New York
Current Conditions -  °F | °C
As of 12:52 AM on Friday 31 Oct 2014 (Local Time) from KAQW Reporting Station
Overcast Overcast  
Wind Chill: 40°   Ceiling: 4100
Heat Index: 40°   Visibility: 10mi
Dew Point: 34°   Wind: 3mph
Humidity: 79%   Direction: 230°SW
Pressure: 30.02"   Gusts: NA
Location:  42.692°N, 73.3686°W
Report Text: KAQW 310452Z AUTO 23003KT 10SM FEW033 OVC041 04/01 A3002 RMK AO2 SLP169 T00440011 401060044
Loading
Personal Weather Stations






























Interactive Weather Map
Tropical Storm Tracking
New forecast layout! Learn more

10-Day Weather Forecast

Advertisements
Track Severe Weather on mobile